createdAt,value
2023-06-06T00:00:45.045Z,0.00
2023-06-06T00:01:45.040Z,0.00
2023-06-06T00:02:45.099Z,0.00
2023-06-06T00:03:45.181Z,0.00
2023-06-06T00:04:45.035Z,0.00
2023-06-06T00:05:44.994Z,0.00
2023-06-06T00:06:44.993Z,0.00
2023-06-06T00:07:44.956Z,0.00
2023-06-06T00:08:44.993Z,0.00
2023-06-06T00:09:44.934Z,0.00
2023-06-06T00:10:45.001Z,0.00
2023-06-06T00:11:44.922Z,0.00
2023-06-06T00:12:45.388Z,0.00
2023-06-06T00:13:44.933Z,0.00
2023-06-06T00:14:44.938Z,0.00
2023-06-06T00:15:44.862Z,0.00
2023-06-06T00:16:44.901Z,0.00
2023-06-06T00:17:44.905Z,0.00
2023-06-06T00:18:44.857Z,0.00
2023-06-06T00:19:44.833Z,0.00
2023-06-06T00:20:44.853Z,0.00
2023-06-06T00:21:44.801Z,0.00
2023-06-06T00:22:44.848Z,0.00
2023-06-06T00:23:44.803Z,0.00
2023-06-06T00:24:44.779Z,0.00
2023-06-06T00:25:44.772Z,0.00
2023-06-06T00:26:44.786Z,0.00
2023-06-06T00:27:44.783Z,0.00
2023-06-06T00:28:44.732Z,0.00
2023-06-06T00:29:44.711Z,0.00
2023-06-06T00:30:44.717Z,0.00
2023-06-06T00:31:44.816Z,0.00
2023-06-06T00:32:44.728Z,0.00
2023-06-06T00:33:44.665Z,0.00
2023-06-06T00:34:44.663Z,0.00
2023-06-06T00:35:44.649Z,0.00
2023-06-06T00:36:44.673Z,0.00
2023-06-06T00:37:44.624Z,0.00
2023-06-06T00:38:44.610Z,0.00
2023-06-06T00:39:44.585Z,0.00
2023-06-06T00:40:44.638Z,0.00
2023-06-06T00:41:44.614Z,0.00
2023-06-06T00:42:44.574Z,0.00
2023-06-06T00:43:44.561Z,0.00
2023-06-06T00:44:44.564Z,0.00
2023-06-06T00:45:44.596Z,0.00
2023-06-06T00:46:44.525Z,0.00
2023-06-06T00:47:44.546Z,0.00
2023-06-06T00:48:44.505Z,0.00
2023-06-06T00:49:44.525Z,0.00
2023-06-06T00:50:44.524Z,0.00
2023-06-06T00:51:44.465Z,0.00
2023-06-06T00:52:44.453Z,0.00
2023-06-06T00:53:44.445Z,0.00
2023-06-06T00:54:44.424Z,0.00
2023-06-06T00:55:44.477Z,0.00
2023-06-06T00:56:44.407Z,0.00
2023-06-06T00:57:44.414Z,0.00
2023-06-06T00:58:44.349Z,0.00
2023-06-06T00:59:44.360Z,0.00
2023-06-06T01:00:44.383Z,0.00
2023-06-06T01:01:44.390Z,0.00
2023-06-06T01:02:44.357Z,0.00
2023-06-06T01:03:44.349Z,0.00
2023-06-06T01:04:44.330Z,0.00
2023-06-06T01:05:44.364Z,0.00
2023-06-06T01:06:44.257Z,0.00
2023-06-06T01:07:44.263Z,0.00
2023-06-06T01:08:44.245Z,0.00
2023-06-06T01:09:44.287Z,0.00
2023-06-06T01:10:44.227Z,0.00
2023-06-06T01:11:44.224Z,0.00
2023-06-06T01:12:44.205Z,0.00
2023-06-06T01:13:44.202Z,0.00
2023-06-06T01:14:44.196Z,0.00
2023-06-06T01:15:44.204Z,0.00
2023-06-06T01:16:44.152Z,0.00
2023-06-06T01:17:44.188Z,0.00
2023-06-06T01:18:44.183Z,0.00
2023-06-06T01:19:44.167Z,0.00
2023-06-06T01:20:44.101Z,0.00
2023-06-06T01:21:44.092Z,0.00
2023-06-06T01:22:44.092Z,0.00
2023-06-06T01:23:44.155Z,0.00
2023-06-06T01:24:44.050Z,0.00
2023-06-06T01:25:44.053Z,0.00
2023-06-06T01:26:44.049Z,0.00
2023-06-06T01:27:44.061Z,0.00
2023-06-06T01:28:44.048Z,0.00
2023-06-06T01:29:44.025Z,0.00
2023-06-06T01:30:44.008Z,0.00
2023-06-06T01:31:44.119Z,0.00
2023-06-06T01:32:44.042Z,0.00
2023-06-06T01:33:43.952Z,0.00
2023-06-06T01:34:43.944Z,0.00
2023-06-06T01:35:43.943Z,0.00
2023-06-06T01:36:43.921Z,0.00
2023-06-06T01:37:43.945Z,0.00
2023-06-06T01:38:43.924Z,0.00
2023-06-06T01:39:43.890Z,0.00
2023-06-06T01:40:43.875Z,0.00
2023-06-06T01:41:43.871Z,0.00
2023-06-06T01:42:43.901Z,0.00
2023-06-06T01:43:43.855Z,0.00
2023-06-06T01:44:43.854Z,0.00
2023-06-06T01:45:43.817Z,0.00
2023-06-06T01:46:43.893Z,0.00
2023-06-06T01:47:43.873Z,0.00
2023-06-06T01:48:43.791Z,0.00
2023-06-06T01:49:43.788Z,0.00
2023-06-06T01:50:43.753Z,0.00
2023-06-06T01:51:43.822Z,0.00
2023-06-06T01:52:43.757Z,0.00
2023-06-06T01:53:43.733Z,0.00
2023-06-06T01:54:43.720Z,0.00
2023-06-06T01:55:43.704Z,0.00
2023-06-06T01:56:43.759Z,0.00
2023-06-06T01:57:43.703Z,0.00
2023-06-06T01:58:43.682Z,0.00
2023-06-06T01:59:43.669Z,0.00
2023-06-06T02:00:43.739Z,0.00
2023-06-06T02:01:43.682Z,0.00
2023-06-06T02:02:43.775Z,0.00
2023-06-06T02:03:43.720Z,0.00
2023-06-06T02:04:43.602Z,0.00
2023-06-06T02:05:43.647Z,0.00
2023-06-06T02:06:43.598Z,4.00
2023-06-06T02:07:43.571Z,4.00
2023-06-06T02:08:43.563Z,4.00
2023-06-06T02:09:43.551Z,0.00
2023-06-06T02:10:43.575Z,0.00
2023-06-06T02:11:43.543Z,4.00
2023-06-06T02:12:43.513Z,4.00
2023-06-06T02:13:43.499Z,8.00
2023-06-06T02:14:43.500Z,4.00
2023-06-06T02:15:43.511Z,4.00
2023-06-06T02:16:43.481Z,4.00
2023-06-06T02:17:43.478Z,8.00
2023-06-06T02:18:43.451Z,8.00
2023-06-06T02:19:43.476Z,8.00
2023-06-06T02:20:43.458Z,8.00
2023-06-06T02:21:43.412Z,12.00
2023-06-06T02:22:43.392Z,12.00
2023-06-06T02:23:43.450Z,16.00
2023-06-06T02:24:43.406Z,16.00
2023-06-06T02:25:43.397Z,20.00
2023-06-06T02:26:43.386Z,20.00
2023-06-06T02:27:43.330Z,24.00
2023-06-06T02:28:43.321Z,24.00
2023-06-06T02:29:43.350Z,32.00
2023-06-06T02:30:43.355Z,32.00
2023-06-06T02:31:43.290Z,36.00
2023-06-06T02:32:43.313Z,40.00
2023-06-06T02:33:43.309Z,44.00
2023-06-06T02:34:43.315Z,48.00
2023-06-06T02:35:43.254Z,52.00
2023-06-06T02:36:43.229Z,56.00
2023-06-06T02:37:43.269Z,60.00
2023-06-06T02:38:43.245Z,64.00
2023-06-06T02:39:43.192Z,68.00
2023-06-06T02:40:43.172Z,76.00
2023-06-06T02:41:43.173Z,84.00
2023-06-06T02:42:43.159Z,88.00
2023-06-06T02:43:43.192Z,100.00
2023-06-06T02:44:43.144Z,108.00
2023-06-06T02:45:43.133Z,116.00
2023-06-06T02:46:43.170Z,124.00
2023-06-06T02:47:43.150Z,132.00
2023-06-06T02:48:43.116Z,140.00
2023-06-06T02:49:43.089Z,148.00
2023-06-06T02:50:43.081Z,160.00
2023-06-06T02:51:43.058Z,168.00
2023-06-06T02:52:43.097Z,180.00
2023-06-06T02:53:43.051Z,192.00
2023-06-06T02:54:43.031Z,204.00
2023-06-06T02:55:43.017Z,216.00
2023-06-06T02:56:42.992Z,228.00
2023-06-06T02:57:43.033Z,244.00
2023-06-06T02:58:42.968Z,256.00
2023-06-06T02:59:42.983Z,276.00
2023-06-06T03:00:42.961Z,292.00
2023-06-06T03:01:43.025Z,312.00
2023-06-06T03:02:43.027Z,328.00
2023-06-06T03:03:42.965Z,348.00
2023-06-06T03:04:42.907Z,368.00
2023-06-06T03:05:42.905Z,384.00
2023-06-06T03:06:42.932Z,400.00
2023-06-06T03:07:42.884Z,416.00
2023-06-06T03:08:42.860Z,436.00
2023-06-06T03:09:42.856Z,448.00
2023-06-06T03:10:42.866Z,468.00
2023-06-06T03:11:42.878Z,484.00
2023-06-06T03:12:42.829Z,500.00
2023-06-06T03:13:42.818Z,520.00
2023-06-06T03:14:55.681Z,536.00
2023-06-06T03:15:43.794Z,560.00
2023-06-06T03:16:42.944Z,584.00
2023-06-06T03:17:42.802Z,616.00
2023-06-06T03:18:42.747Z,652.00
2023-06-06T03:19:42.748Z,688.00
2023-06-06T03:20:42.782Z,724.00
2023-06-06T03:21:42.762Z,764.00
2023-06-06T03:22:42.705Z,800.00
2023-06-06T03:23:42.887Z,836.00
2023-06-06T03:24:42.691Z,876.00
2023-06-06T03:25:42.717Z,912.00
2023-06-06T03:26:42.672Z,948.00
2023-06-06T03:27:42.661Z,988.00
2023-06-06T03:28:42.643Z,1032.00
2023-06-06T03:29:42.663Z,1084.00
2023-06-06T03:30:42.679Z,1144.00
2023-06-06T03:31:42.648Z,1204.00
2023-06-06T03:32:42.595Z,1260.00
2023-06-06T03:33:42.580Z,1336.00
2023-06-06T03:34:42.563Z,1432.00
2023-06-06T03:35:42.629Z,1516.00
2023-06-06T03:36:42.562Z,1588.00
2023-06-06T03:37:42.549Z,1624.00
2023-06-06T03:38:42.527Z,1708.00
2023-06-06T03:39:42.565Z,1764.00
2023-06-06T03:40:42.554Z,1840.00
2023-06-06T03:41:42.491Z,1900.00
2023-06-06T03:42:42.483Z,1956.00
2023-06-06T03:43:42.463Z,2004.00
2023-06-06T03:44:42.480Z,2052.00
2023-06-06T03:45:42.524Z,2104.00
2023-06-06T03:46:42.423Z,2156.00
2023-06-06T03:47:42.490Z,2196.00
2023-06-06T03:48:42.402Z,2244.00
2023-06-06T03:49:42.432Z,2292.00
2023-06-06T03:50:42.384Z,2352.00
2023-06-06T03:51:42.423Z,2412.00
2023-06-06T03:52:42.374Z,2480.00
2023-06-06T03:53:42.392Z,2552.00
2023-06-06T03:54:42.412Z,2640.00
2023-06-06T03:55:42.332Z,2720.00
2023-06-06T03:56:42.318Z,2804.00
2023-06-06T03:57:42.306Z,2880.00
2023-06-06T03:58:42.317Z,2952.00
2023-06-06T03:59:42.278Z,3016.00
2023-06-06T04:00:42.263Z,3072.00
2023-06-06T04:01:42.665Z,3116.00
2023-06-06T04:02:42.325Z,3152.00
2023-06-06T04:03:42.368Z,3196.00
2023-06-06T04:04:42.301Z,3252.00
2023-06-06T04:05:42.217Z,3260.00
2023-06-06T04:06:42.186Z,3288.00
2023-06-06T04:07:42.227Z,3348.00
2023-06-06T04:08:42.213Z,3412.00
2023-06-06T04:09:42.197Z,3480.00
2023-06-06T04:10:42.155Z,3544.00
2023-06-06T04:11:42.160Z,3608.00
2023-06-06T04:12:42.163Z,3684.00
2023-06-06T04:13:42.116Z,3752.00
2023-06-06T04:14:42.109Z,3832.00
2023-06-06T04:15:42.144Z,3928.00
2023-06-06T04:16:42.095Z,4028.00
2023-06-06T04:17:42.113Z,4124.00
2023-06-06T04:18:42.058Z,4232.00
2023-06-06T04:19:42.056Z,4352.00
2023-06-06T04:20:42.023Z,4476.00
2023-06-06T04:21:42.072Z,4604.00
2023-06-06T04:22:42.051Z,4732.00
2023-06-06T04:23:42.080Z,4868.00
2023-06-06T04:24:41.981Z,5012.00
2023-06-06T04:25:41.998Z,5160.00
2023-06-06T04:26:42.151Z,5308.00
2023-06-06T04:27:42.125Z,5460.00
2023-06-06T04:28:41.953Z,5616.00
2023-06-06T04:29:41.943Z,5772.00
2023-06-06T04:30:41.931Z,5928.00
2023-06-06T04:31:42.110Z,6080.00
2023-06-06T04:32:41.902Z,6236.00
2023-06-06T04:33:41.874Z,6380.00
2023-06-06T04:34:41.876Z,6516.00
2023-06-06T04:35:41.915Z,6656.00
2023-06-06T04:36:41.890Z,6792.00
2023-06-06T04:37:41.866Z,6916.00
2023-06-06T04:38:41.846Z,7036.00
2023-06-06T04:39:41.808Z,7112.00
2023-06-06T04:41:00.540Z,7188.00
2023-06-06T04:42:41.782Z,7308.00
2023-06-06T04:43:41.776Z,7364.00
2023-06-06T04:44:41.775Z,7392.00
2023-06-06T04:45:41.789Z,7420.00
2023-06-06T04:46:41.766Z,7440.00
2023-06-06T04:47:42.016Z,7448.00
2023-06-06T04:48:41.717Z,7452.00
2023-06-06T04:49:41.713Z,7468.00
2023-06-06T04:50:41.726Z,7512.00
2023-06-06T04:51:41.702Z,7608.00
2023-06-06T04:52:41.688Z,7788.00
2023-06-06T04:53:41.654Z,7968.00
2023-06-06T04:54:41.752Z,8256.00
2023-06-06T04:55:41.696Z,8448.00
2023-06-06T04:56:41.636Z,8700.00
2023-06-06T04:57:41.615Z,9000.00
2023-06-06T04:58:41.615Z,9152.00
2023-06-06T04:59:41.660Z,9328.00
2023-06-06T05:00:41.615Z,9496.00
2023-06-06T05:01:41.593Z,9476.00
2023-06-06T05:02:41.600Z,9548.00
2023-06-06T05:03:41.631Z,9716.00
2023-06-06T05:04:41.589Z,9696.00
2023-06-06T05:05:41.538Z,9732.00
2023-06-06T05:06:41.516Z,9868.00
2023-06-06T05:07:41.521Z,9944.00
2023-06-06T05:08:41.530Z,10004.00
2023-06-06T05:09:41.548Z,10060.00
2023-06-06T05:10:41.479Z,10132.00
2023-06-06T05:11:41.458Z,10176.00
2023-06-06T05:12:41.460Z,10216.00
2023-06-06T05:13:41.496Z,10160.00
2023-06-06T05:14:41.451Z,10188.00
2023-06-06T05:15:41.412Z,10092.00
2023-06-06T05:16:41.408Z,10000.00
2023-06-06T05:17:41.413Z,9924.00
2023-06-06T05:18:41.406Z,9832.00
2023-06-06T05:19:41.390Z,9724.00
2023-06-06T05:20:41.360Z,9628.00
2023-06-06T05:21:41.356Z,9568.00
2023-06-06T05:22:41.390Z,9580.00
2023-06-06T05:23:41.418Z,9608.00
2023-06-06T05:24:41.329Z,9736.00
2023-06-06T05:25:41.313Z,9896.00
2023-06-06T05:26:41.301Z,10100.00
2023-06-06T05:27:41.342Z,10312.00
2023-06-06T05:28:41.275Z,10472.00
2023-06-06T05:29:41.271Z,10632.00
2023-06-06T05:30:41.253Z,10828.00
2023-06-06T05:31:41.340Z,10944.00
2023-06-06T05:32:41.321Z,11112.00
2023-06-06T05:33:41.232Z,11256.00
2023-06-06T05:34:41.211Z,11364.00
2023-06-06T05:35:41.242Z,11448.00
2023-06-06T05:36:41.201Z,11468.00
2023-06-06T05:37:41.178Z,11448.00
2023-06-06T05:38:41.190Z,11424.00
2023-06-06T05:39:41.129Z,11424.00
2023-06-06T05:40:41.154Z,11420.00
2023-06-06T05:41:41.135Z,11444.00
2023-06-06T05:42:41.134Z,11500.00
2023-06-06T05:43:41.080Z,11624.00
2023-06-06T05:44:41.098Z,11608.00
2023-06-06T05:45:42.847Z,11636.00
2023-06-06T05:46:41.163Z,11592.00
2023-06-06T05:47:41.073Z,11504.00
2023-06-06T05:48:41.049Z,11380.00
2023-06-06T05:49:41.055Z,11180.00
2023-06-06T05:50:41.087Z,11020.00
2023-06-06T05:51:40.991Z,10948.00
2023-06-06T05:52:41.005Z,11000.00
2023-06-06T05:53:40.979Z,11112.00
2023-06-06T05:54:49.653Z,11216.00
2023-06-06T05:55:42.007Z,11304.00
2023-06-06T05:56:40.934Z,11388.00
2023-06-06T05:57:40.982Z,11388.00
2023-06-06T05:58:41.773Z,11296.00
2023-06-06T05:59:40.949Z,11284.00
2023-06-06T06:00:40.965Z,11220.00
2023-06-06T06:01:41.453Z,11216.00
2023-06-06T06:02:40.993Z,11188.00
2023-06-06T06:03:41.256Z,11200.00
2023-06-06T06:04:40.931Z,11084.00
2023-06-06T06:05:40.889Z,11184.00
2023-06-06T06:06:40.864Z,11536.00
2023-06-06T06:07:40.829Z,11968.00
2023-06-06T06:08:40.824Z,12244.00
2023-06-06T06:09:40.851Z,12656.00
2023-06-06T06:10:40.873Z,13064.00
2023-06-06T06:11:40.790Z,13216.00
2023-06-06T06:12:40.764Z,13232.00
2023-06-06T06:13:40.746Z,13024.00
2023-06-06T06:14:40.790Z,12860.00
2023-06-06T06:15:40.746Z,12576.00
2023-06-06T06:16:40.806Z,12792.00
2023-06-06T06:17:40.752Z,12644.00
2023-06-06T06:18:40.696Z,12592.00
2023-06-06T06:19:40.714Z,12656.00
2023-06-06T06:20:40.693Z,12808.00
2023-06-06T06:21:40.677Z,12948.00
2023-06-06T06:22:40.653Z,13076.00
2023-06-06T06:23:40.735Z,13200.00
2023-06-06T06:24:40.689Z,13344.00
2023-06-06T06:25:40.673Z,13488.00
2023-06-06T06:26:40.617Z,13640.00
2023-06-06T06:27:40.597Z,13744.00
2023-06-06T06:28:40.632Z,13764.00
2023-06-06T06:29:40.586Z,13760.00
2023-06-06T06:30:40.560Z,13744.00
2023-06-06T06:31:40.599Z,13628.00
2023-06-06T06:32:41.561Z,13308.00
2023-06-06T06:33:40.576Z,12860.00
2023-06-06T06:34:40.558Z,12496.00
2023-06-06T06:35:40.488Z,12400.00
2023-06-06T06:36:40.508Z,12308.00
2023-06-06T06:37:40.876Z,12148.00
2023-06-06T06:38:40.501Z,11960.00
2023-06-06T06:39:40.475Z,11680.00
2023-06-06T06:40:40.433Z,11528.00
2023-06-06T06:41:40.425Z,11492.00
2023-06-06T06:42:40.443Z,11360.00
2023-06-06T06:43:40.400Z,11096.00
2023-06-06T06:44:42.228Z,10748.00
2023-06-06T06:45:40.425Z,10252.00
2023-06-06T06:46:40.381Z,9632.00
2023-06-06T06:47:40.451Z,8980.00
2023-06-06T06:48:40.386Z,8528.00
2023-06-06T06:49:40.335Z,8376.00
2023-06-06T06:50:40.339Z,8448.00
2023-06-06T06:51:40.352Z,8848.00
2023-06-06T06:52:40.357Z,9292.00
2023-06-06T06:53:40.300Z,9616.00
2023-06-06T06:54:40.287Z,9984.00
2023-06-06T06:55:40.277Z,10488.00
2023-06-06T06:56:40.347Z,11068.00
2023-06-06T06:57:40.259Z,11572.00
2023-06-06T06:58:40.248Z,12188.00
2023-06-06T06:59:40.225Z,13068.00
2023-06-06T07:00:40.230Z,14104.00
2023-06-06T07:01:40.332Z,14908.00
2023-06-06T07:02:40.250Z,15256.00
2023-06-06T07:03:40.211Z,15272.00
2023-06-06T07:04:40.180Z,15164.00
2023-06-06T07:05:40.261Z,14908.00
2023-06-06T07:06:40.192Z,14540.00
2023-06-06T07:07:40.153Z,14192.00
2023-06-06T07:08:40.132Z,13948.00
2023-06-06T07:09:40.120Z,13760.00
2023-06-06T07:10:40.134Z,13508.00
2023-06-06T07:11:40.081Z,13268.00
2023-06-06T07:12:40.740Z,13172.00
2023-06-06T07:13:40.071Z,13452.00
2023-06-06T07:14:40.056Z,13988.00
2023-06-06T07:15:40.094Z,14488.00
2023-06-06T07:16:40.039Z,14904.00
2023-06-06T07:17:40.098Z,15248.00
2023-06-06T07:18:40.029Z,15540.00
2023-06-06T07:19:40.051Z,15820.00
2023-06-06T07:20:40.040Z,16060.00
2023-06-06T07:21:39.982Z,16280.00
2023-06-06T07:22:39.969Z,16624.00
2023-06-06T07:23:40.034Z,17104.00
2023-06-06T07:24:40.004Z,17888.00
2023-06-06T07:25:39.967Z,18560.00
2023-06-06T07:26:39.932Z,19264.00
2023-06-06T07:27:39.932Z,19808.00
2023-06-06T07:28:42.960Z,20288.00
2023-06-06T07:29:39.906Z,20608.00
2023-06-06T07:30:39.870Z,20896.00
2023-06-06T07:31:39.883Z,21152.00
2023-06-06T07:32:39.939Z,21408.00
2023-06-06T07:33:39.872Z,21536.00
2023-06-06T07:34:39.881Z,21568.00
2023-06-06T07:35:39.819Z,21376.00
2023-06-06T07:36:39.811Z,20992.00
2023-06-06T07:37:39.833Z,20480.00
2023-06-06T07:38:39.832Z,19808.00
2023-06-06T07:39:39.769Z,19104.00
2023-06-06T07:40:39.744Z,18368.00
2023-06-06T07:41:39.731Z,17472.00
2023-06-06T07:42:39.750Z,16724.00
2023-06-06T07:43:39.760Z,16288.00
2023-06-06T07:44:39.727Z,15924.00
2023-06-06T07:45:39.713Z,15564.00
2023-06-06T07:46:39.773Z,15164.00
2023-06-06T07:47:39.721Z,14824.00
2023-06-06T07:48:39.717Z,14548.00
2023-06-06T07:49:39.680Z,14320.00
2023-06-06T07:50:39.674Z,14124.00
2023-06-06T07:51:39.630Z,13948.00
2023-06-06T07:52:39.691Z,13872.00
2023-06-06T07:53:39.668Z,13896.00
2023-06-06T07:54:39.591Z,14008.00
2023-06-06T07:55:39.600Z,14192.00
2023-06-06T07:56:39.583Z,14436.00
2023-06-06T07:57:39.622Z,14744.00
2023-06-06T07:58:39.574Z,15064.00
2023-06-06T07:59:39.582Z,15388.00
2023-06-06T08:00:39.540Z,15652.00
2023-06-06T08:01:39.638Z,16004.00
2023-06-06T08:02:39.679Z,16396.00
2023-06-06T08:03:39.498Z,16756.00
2023-06-06T08:04:39.501Z,17012.00
2023-06-06T08:05:39.538Z,17076.00
2023-06-06T08:06:39.534Z,16936.00
2023-06-06T08:07:39.589Z,16712.00
2023-06-06T08:08:39.444Z,16488.00
2023-06-06T08:09:39.509Z,16196.00
2023-06-06T08:10:39.445Z,15772.00
2023-06-06T08:11:39.457Z,15604.00
2023-06-06T08:12:39.435Z,15736.00
2023-06-06T08:13:39.400Z,15960.00
2023-06-06T08:14:39.392Z,16168.00
2023-06-06T08:15:39.374Z,16216.00
2023-06-06T08:16:39.392Z,15976.00
2023-06-06T08:17:39.488Z,15632.00
2023-06-06T08:18:39.456Z,15152.00
2023-06-06T08:19:39.326Z,14608.00
2023-06-06T08:20:39.371Z,14224.00
2023-06-06T08:21:39.350Z,14104.00
2023-06-06T08:22:39.353Z,14236.00
2023-06-06T08:23:39.336Z,14192.00
2023-06-06T08:24:39.288Z,13708.00
2023-06-06T08:25:39.317Z,13028.00
2023-06-06T08:26:39.274Z,12604.00
2023-06-06T08:27:39.260Z,12736.00
2023-06-06T08:28:39.227Z,13316.00
2023-06-06T08:29:39.225Z,14256.00
2023-06-06T08:30:39.256Z,15380.00
2023-06-06T08:31:39.277Z,16684.00
2023-06-06T08:32:39.236Z,18176.00
2023-06-06T08:33:39.194Z,19520.00
2023-06-06T08:34:39.179Z,20928.00
2023-06-06T08:35:39.226Z,22432.00
2023-06-06T08:36:39.150Z,23872.00
2023-06-06T08:37:39.138Z,25216.00
2023-06-06T08:38:39.121Z,26560.00
2023-06-06T08:39:39.128Z,28000.00
2023-06-06T08:40:39.100Z,29216.00
2023-06-06T08:41:39.078Z,30272.00
2023-06-06T08:42:39.068Z,31104.00
2023-06-06T08:43:39.067Z,31744.00
2023-06-06T08:44:39.068Z,32800.00
2023-06-06T08:45:39.029Z,33536.00
2023-06-06T08:46:39.065Z,33760.00
2023-06-06T08:47:39.043Z,33792.00
2023-06-06T08:48:39.047Z,34432.00
2023-06-06T08:49:39.030Z,35104.00
2023-06-06T08:50:38.964Z,35872.00
2023-06-06T08:51:38.969Z,36800.00
2023-06-06T08:52:38.962Z,38336.00
2023-06-06T08:53:38.953Z,39776.00
2023-06-06T08:54:38.933Z,45792.00
2023-06-06T08:55:38.924Z,44736.00
2023-06-06T08:56:38.894Z,43904.00
2023-06-06T08:57:38.864Z,49088.00
2023-06-06T08:58:38.913Z,46624.00
2023-06-06T08:59:38.905Z,45760.00
2023-06-06T09:00:38.874Z,45184.00
2023-06-06T09:01:38.887Z,41472.00
2023-06-06T09:02:38.906Z,42464.00
2023-06-06T09:03:38.883Z,41792.00
2023-06-06T09:04:38.826Z,45664.00
2023-06-06T09:05:38.837Z,45344.00
2023-06-06T09:06:38.795Z,46880.00
2023-06-06T09:07:38.832Z,49664.00
2023-06-06T09:08:38.805Z,47520.00
2023-06-06T09:09:38.753Z,45792.00
2023-06-06T09:10:38.766Z,47520.00
2023-06-06T09:11:38.732Z,51104.00
2023-06-06T09:12:38.766Z,56832.00
2023-06-06T09:13:38.729Z,60160.00
2023-06-06T09:14:38.724Z,57536.00
2023-06-06T09:15:38.696Z,57728.00
2023-06-06T09:16:38.795Z,51200.00
2023-06-06T09:17:38.738Z,49376.00
2023-06-06T09:18:38.679Z,64768.00
2023-06-06T09:19:38.679Z,52256.00
2023-06-06T09:20:38.661Z,71936.00
2023-06-06T09:21:38.649Z,65888.00
2023-06-06T09:22:38.660Z,68992.00
2023-06-06T09:23:38.629Z,76000.00
2023-06-06T09:24:38.736Z,73888.00
2023-06-06T09:25:38.620Z,68384.00
2023-06-06T09:26:38.612Z,70176.00
2023-06-06T09:27:38.603Z,60672.00
2023-06-06T09:28:38.584Z,52416.00
2023-06-06T09:29:38.541Z,44896.00
2023-06-06T09:30:38.584Z,41440.00
2023-06-06T09:31:38.743Z,37024.00
2023-06-06T09:32:40.227Z,36000.00
2023-06-06T09:33:38.550Z,38720.00
2023-06-06T09:34:38.494Z,45248.00
2023-06-06T09:35:38.463Z,56160.00
2023-06-06T09:36:38.523Z,52896.00
2023-06-06T09:37:38.520Z,51488.00
2023-06-06T09:38:38.459Z,49856.00
2023-06-06T09:39:38.442Z,38560.00
2023-06-06T09:40:38.464Z,32896.00
2023-06-06T09:41:38.433Z,28768.00
2023-06-06T09:42:38.408Z,26496.00
2023-06-06T09:43:38.421Z,25472.00
2023-06-06T09:44:38.472Z,25920.00
2023-06-06T09:45:38.553Z,26240.00
2023-06-06T09:46:38.546Z,25504.00
2023-06-06T09:47:38.405Z,24288.00
2023-06-06T09:48:38.339Z,24544.00
2023-06-06T09:49:38.602Z,23680.00
2023-06-06T09:50:38.365Z,22240.00
2023-06-06T09:51:38.302Z,21728.00
2023-06-06T09:52:38.914Z,21376.00
2023-06-06T09:53:38.393Z,21984.00
2023-06-06T09:54:38.238Z,24416.00
2023-06-06T09:55:38.278Z,25856.00
2023-06-06T09:56:38.254Z,26432.00
2023-06-06T09:57:38.258Z,27808.00
2023-06-06T09:58:38.233Z,32032.00
2023-06-06T09:59:38.296Z,34208.00
2023-06-06T10:00:38.231Z,34368.00
2023-06-06T10:01:38.278Z,36352.00
2023-06-06T10:02:38.351Z,40864.00
2023-06-06T10:03:38.317Z,41536.00
2023-06-06T10:04:38.397Z,40320.00
2023-06-06T10:05:38.191Z,38816.00
2023-06-06T10:06:38.132Z,37408.00
2023-06-06T10:07:38.107Z,36544.00
2023-06-06T10:08:38.135Z,35904.00
2023-06-06T10:09:38.217Z,37088.00
2023-06-06T10:10:38.106Z,39296.00
2023-06-06T10:11:38.113Z,41760.00
2023-06-06T10:12:38.073Z,40128.00
2023-06-06T10:13:38.121Z,35808.00
2023-06-06T10:14:38.088Z,31872.00
2023-06-06T10:15:38.032Z,28768.00
2023-06-06T10:16:38.089Z,26528.00
2023-06-06T10:17:38.141Z,24832.00
2023-06-06T10:18:38.067Z,24576.00
2023-06-06T10:19:37.999Z,26528.00
2023-06-06T10:20:37.989Z,29248.00
2023-06-06T10:21:38.799Z,31040.00
2023-06-06T10:22:38.005Z,31072.00
2023-06-06T10:23:38.171Z,29760.00
2023-06-06T10:24:39.822Z,27200.00
2023-06-06T10:25:37.939Z,24608.00
2023-06-06T10:26:37.904Z,23360.00
2023-06-06T10:27:38.070Z,23648.00
2023-06-06T10:28:38.066Z,23264.00
2023-06-06T10:29:37.926Z,20800.00
2023-06-06T10:30:37.870Z,17280.00
2023-06-06T10:31:37.920Z,14460.00
2023-06-06T10:32:37.939Z,12320.00
2023-06-06T10:33:37.840Z,10464.00
2023-06-06T10:34:37.864Z,8932.00
2023-06-06T10:35:37.822Z,7900.00
2023-06-06T10:36:37.787Z,6996.00
2023-06-06T10:37:37.846Z,6148.00
2023-06-06T10:38:37.781Z,5584.00
2023-06-06T10:39:37.792Z,5516.00
2023-06-06T10:40:37.764Z,5984.00
2023-06-06T10:41:37.749Z,6368.00
2023-06-06T10:42:37.766Z,6192.00
2023-06-06T10:43:37.726Z,5308.00
2023-06-06T10:44:37.739Z,4196.00
2023-06-06T10:45:37.706Z,3244.00
2023-06-06T10:46:37.791Z,2580.00
2023-06-06T10:47:37.739Z,2172.00
2023-06-06T10:48:37.691Z,1960.00
2023-06-06T10:49:37.640Z,1896.00
2023-06-06T10:50:37.635Z,1916.00
2023-06-06T10:51:37.721Z,1896.00
2023-06-06T10:52:37.623Z,1916.00
2023-06-06T10:53:37.633Z,1928.00
2023-06-06T10:54:37.602Z,1944.00
2023-06-06T10:55:37.763Z,2012.00
2023-06-06T10:56:37.645Z,2072.00
2023-06-06T10:57:37.606Z,2016.00
2023-06-06T10:58:37.768Z,1996.00
2023-06-06T10:59:37.580Z,2088.00
2023-06-06T11:00:37.628Z,2156.00
2023-06-06T11:01:37.625Z,2220.00
2023-06-06T11:02:37.531Z,2324.00
2023-06-06T11:03:37.618Z,2344.00
2023-06-06T11:04:37.486Z,2260.00
2023-06-06T11:05:37.511Z,2304.00
2023-06-06T11:06:37.463Z,2332.00
2023-06-06T11:07:37.471Z,2300.00
2023-06-06T11:08:37.469Z,2340.00
2023-06-06T11:09:37.461Z,2400.00
2023-06-06T11:10:37.425Z,2572.00
2023-06-06T11:11:37.437Z,3156.00
2023-06-06T11:12:37.383Z,3972.00
2023-06-06T11:13:37.390Z,4856.00
2023-06-06T11:14:37.351Z,5460.00
2023-06-06T11:15:37.404Z,5736.00
2023-06-06T11:16:37.379Z,5924.00
2023-06-06T11:17:37.355Z,5860.00
2023-06-06T11:18:37.293Z,5684.00
2023-06-06T11:19:37.330Z,5664.00
2023-06-06T11:20:37.354Z,6056.00
2023-06-06T11:21:37.274Z,6864.00
2023-06-06T11:22:37.290Z,7896.00
2023-06-06T11:23:37.295Z,8748.00
2023-06-06T11:24:37.297Z,9400.00
2023-06-06T11:25:37.269Z,10232.00
2023-06-06T11:26:37.242Z,11220.00
2023-06-06T11:27:37.321Z,12412.00
2023-06-06T11:28:37.197Z,13604.00
2023-06-06T11:29:37.259Z,15040.00
2023-06-06T11:30:37.416Z,17064.00
2023-06-06T11:31:37.258Z,19584.00
2023-06-06T11:32:37.254Z,21792.00
2023-06-06T11:33:37.218Z,22720.00
2023-06-06T11:34:37.201Z,21888.00
2023-06-06T11:35:37.199Z,20384.00
2023-06-06T11:36:37.138Z,19616.00
2023-06-06T11:37:37.121Z,19040.00
2023-06-06T11:38:37.123Z,18848.00
2023-06-06T11:39:37.106Z,19104.00
2023-06-06T11:40:37.101Z,19680.00
2023-06-06T11:41:37.057Z,20704.00
2023-06-06T11:42:37.100Z,21312.00
2023-06-06T11:43:37.097Z,22464.00
2023-06-06T11:44:37.246Z,24736.00
2023-06-06T11:45:37.976Z,26592.00
2023-06-06T11:46:36.994Z,26016.00
2023-06-06T11:47:37.119Z,23840.00
2023-06-06T11:48:37.056Z,22208.00
2023-06-06T11:49:36.954Z,22400.00
2023-06-06T11:50:36.960Z,22432.00
2023-06-06T11:51:36.949Z,20832.00
2023-06-06T11:52:36.943Z,19232.00
2023-06-06T11:53:36.924Z,19552.00
2023-06-06T11:54:36.898Z,22272.00
2023-06-06T11:55:36.905Z,25536.00
2023-06-06T11:56:36.878Z,27328.00
2023-06-06T11:57:36.913Z,27936.00
2023-06-06T11:58:36.859Z,27520.00
2023-06-06T11:59:36.911Z,26080.00
2023-06-06T12:00:36.832Z,24416.00
2023-06-06T12:01:36.872Z,22848.00
2023-06-06T12:02:36.902Z,21312.00
2023-06-06T12:03:36.945Z,19488.00
2023-06-06T12:04:36.819Z,17240.00
2023-06-06T12:05:36.805Z,14928.00
2023-06-06T12:06:36.821Z,12972.00
2023-06-06T12:07:36.753Z,11680.00
2023-06-06T12:08:36.751Z,11080.00
2023-06-06T12:09:36.746Z,10872.00
2023-06-06T12:10:36.743Z,10812.00
2023-06-06T12:11:36.798Z,10744.00